Time;durP1;ratioP1;P1;durP2;ratioP2;P2;SDS_P1;SDS_P2;PMS_P1;PMS_P2;Temp;Humidity;BMP_temperature;BMP_pressure;BME280_temperature;BME280_humidity;BME280_pressure;Samples;Min_cycle;Max_cycle;Signal;HPM_P1;HPM_P2
2022/11/26 00:00:56;;;;;;;;;;;18.80;70.00;;;;;;4445875;32;20293;-77
2022/11/26 00:03:21;;;;;;;;;;;18.70;70.00;;;;;;4445618;32;19981;-77
2022/11/26 00:05:49;;;;;;;;;;;18.70;70.00;;;;;;4445640;32;20320;-79
2022/11/26 00:08:19;;;;;;;;;;;18.70;70.10;;;;;;4445985;32;19978;-78
2022/11/26 00:10:45;;;;;;;;;;;18.70;70.00;;;;;;4445461;32;19997;-77
2022/11/26 00:13:20;;;;;;;;;;;18.70;70.10;;;;;;4446090;32;19979;-80
2022/11/26 00:15:46;;;;;;;;;;;18.60;70.00;;;;;;4446001;32;19994;-77
2022/11/26 00:18:13;;;;;;;;;;;18.60;69.90;;;;;;4445790;32;19962;-77
2022/11/26 00:20:39;;;;;;;;;;;18.60;70.00;;;;;;4445772;32;20010;-77
2022/11/26 00:23:05;;;;;;;;;;;18.60;70.00;;;;;;4445608;32;20047;-77
2022/11/26 00:25:42;;;;;;;;;;;18.60;70.00;;;;;;4445736;32;19967;-77
2022/11/26 00:28:19;;;;;;;;;;;18.60;69.90;;;;;;4446021;32;20517;-77
2022/11/26 00:30:45;;;;;;;;;;;18.60;69.90;;;;;;4448728;32;19990;-77
2022/11/26 00:33:10;;;;;;;;;;;18.60;69.90;;;;;;4448827;32;19977;-77
2022/11/26 00:35:36;;;;;;;;;;;18.60;69.90;;;;;;4448644;32;19981;-77
2022/11/26 00:38:02;;;;;;;;;;;18.60;69.90;;;;;;4448856;32;19970;-76
2022/11/26 00:40:30;;;;;;;;;;;18.60;70.00;;;;;;4448454;32;19977;-77
2022/11/26 00:42:56;;;;;;;;;;;18.60;69.80;;;;;;4448699;32;20108;-77
2022/11/26 00:45:23;;;;;;;;;;;18.50;69.80;;;;;;4448610;32;19967;-77
2022/11/26 00:47:49;;;;;;;;;;;18.50;69.80;;;;;;4448721;32;20491;-78
2022/11/26 00:50:16;;;;;;;;;;;18.50;69.80;;;;;;4448468;32;19990;-75
2022/11/26 00:52:42;;;;;;;;;;;18.50;69.70;;;;;;4448328;32;20445;-77
2022/11/26 00:55:14;;;;;;;;;;;18.60;69.90;;;;;;4448438;32;20519;-77
2022/11/26 00:57:39;;;;;;;;;;;18.50;69.80;;;;;;4448637;32;20022;-77
2022/11/26 01:00:12;;;;;;;;;;;18.50;69.80;;;;;;4448387;32;19978;-77
2022/11/26 01:02:38;;;;;;;;;;;18.50;69.80;;;;;;4448263;32;19982;-77
2022/11/26 01:05:03;;;;;;;;;;;18.40;69.70;;;;;;4448200;32;19978;-76
2022/11/26 01:07:29;;;;;;;;;;;18.40;69.60;;;;;;4448271;32;20014;-77
2022/11/26 01:09:56;;;;;;;;;;;18.40;69.60;;;;;;4447850;32;19982;-76
2022/11/26 01:12:21;;;;;;;;;;;18.40;69.50;;;;;;4448007;32;19977;-76
2022/11/26 01:14:47;;;;;;;;;;;18.40;69.50;;;;;;4448144;32;19975;-77
2022/11/26 01:17:13;;;;;;;;;;;18.40;69.50;;;;;;4447755;32;20053;-77
2022/11/26 01:19:38;;;;;;;;;;;18.40;69.50;;;;;;4447951;32;19978;-77
2022/11/26 01:22:04;;;;;;;;;;;18.40;69.60;;;;;;4448383;32;19981;-77
2022/11/26 01:24:30;;;;;;;;;;;18.40;69.50;;;;;;4448334;32;19967;-77
2022/11/26 01:26:55;;;;;;;;;;;18.40;69.60;;;;;;4448050;32;20293;-77
2022/11/26 01:29:21;;;;;;;;;;;18.40;69.50;;;;;;4448238;32;19976;-76
2022/11/26 01:31:47;;;;;;;;;;;18.40;69.50;;;;;;4448018;32;20088;-77
2022/11/26 01:34:12;;;;;;;;;;;18.40;69.50;;;;;;4447865;32;20100;-76
2022/11/26 01:36:39;;;;;;;;;;;18.40;69.50;;;;;;4447751;32;19977;-76
2022/11/26 01:39:09;;;;;;;;;;;18.40;69.40;;;;;;4447912;32;20102;-78
2022/11/26 01:41:48;;;;;;;;;;;18.30;69.50;;;;;;4447739;32;19971;-77
2022/11/26 01:44:21;;;;;;;;;;;18.30;69.50;;;;;;4448256;32;19990;-77
2022/11/26 01:46:47;;;;;;;;;;;18.30;69.50;;;;;;4447746;32;19989;-77
2022/11/26 01:49:14;;;;;;;;;;;18.30;69.50;;;;;;4447350;32;19982;-77
2022/11/26 01:51:40;;;;;;;;;;;18.30;69.50;;;;;;4447711;32;20100;-77
2022/11/26 01:54:06;;;;;;;;;;;18.30;69.40;;;;;;4447766;32;19983;-77
2022/11/26 01:56:35;;;;;;;;;;;18.30;69.50;;;;;;4447784;32;19978;-77
2022/11/26 01:59:04;;;;;;;;;;;18.20;69.40;;;;;;4447764;32;19983;-77
2022/11/26 02:01:30;;;;;;;;;;;18.30;69.60;;;;;;4447752;32;20018;-77
2022/11/26 02:04:07;;;;;;;;;;;18.20;69.40;;;;;;4447390;32;19986;-77
2022/11/26 02:06:33;;;;;;;;;;;18.20;69.40;;;;;;4447964;32;19993;-76
2022/11/26 02:09:00;;;;;;;;;;;18.20;69.50;;;;;;4447728;32;20088;-75
2022/11/26 02:11:27;;;;;;;;;;;18.20;69.50;;;;;;4447895;32;19990;-74
2022/11/26 02:13:58;;;;;;;;;;;18.20;69.50;;;;;;4447596;32;19974;-76
2022/11/26 02:16:27;;;;;;;;;;;18.20;69.60;;;;;;4447619;32;19982;-76
2022/11/26 02:19:15;;;;;;;;;;;18.20;69.50;;;;;;4447418;32;19974;-76
2022/11/26 02:21:43;;;;;;;;;;;18.20;69.60;;;;;;4446493;32;19987;-75
2022/11/26 02:24:32;;;;;;;;;;;18.20;69.50;;;;;;4447947;32;19978;-75
2022/11/26 02:27:16;;;;;;;;;;;18.20;69.50;;;;;;4441091;32;19978;-79
2022/11/26 02:30:00;;;;;;;;;;;18.20;69.50;;;;;;4447886;32;19985;-78
2022/11/26 02:32:45;;;;;;;;;;;18.20;69.50;;;;;;4447677;32;20029;-78
2022/11/26 02:35:29;;;;;;;;;;;18.10;69.50;;;;;;4447392;32;20489;-78
2022/11/26 02:37:58;;;;;;;;;;;18.20;69.50;;;;;;4447496;32;19988;-79
2022/11/26 02:40:24;;;;;;;;;;;18.10;70.30;;;;;;4447682;32;19990;-78
2022/11/26 02:42:49;;;;;;;;;;;18.10;69.50;;;;;;4447388;32;20017;-76
2022/11/26 02:45:18;;;;;;;;;;;18.10;70.30;;;;;;4447377;32;20323;-77
2022/11/26 02:47:46;;;;;;;;;;;18.10;69.50;;;;;;4447358;32;19989;-77
2022/11/26 02:50:20;;;;;;;;;;;18.10;69.50;;;;;;4446774;32;19979;-77
2022/11/26 02:52:47;;;;;;;;;;;18.10;69.50;;;;;;4446384;32;19982;-78
2022/11/26 02:55:14;;;;;;;;;;;18.10;69.50;;;;;;4447104;32;19993;-79
2022/11/26 02:57:46;;;;;;;;;;;18.10;69.50;;;;;;4446648;32;20006;-77
2022/11/26 03:00:12;;;;;;;;;;;18.10;69.50;;;;;;4446624;32;20052;-77
2022/11/26 03:02:46;;;;;;;;;;;18.10;69.50;;;;;;4446898;32;20116;-77
2022/11/26 03:05:15;;;;;;;;;;;18.00;69.40;;;;;;4446857;32;19979;-77
2022/11/26 03:07:41;;;;;;;;;;;18.00;69.40;;;;;;4446830;32;19978;-78
2022/11/26 03:10:07;;;;;;;;;;;18.00;69.40;;;;;;4445217;32;19993;-78
2022/11/26 03:12:33;;;;;;;;;;;18.00;69.40;;;;;;4446721;32;19990;-78
2022/11/26 03:14:59;;;;;;;;;;;18.00;69.30;;;;;;4445992;32;20006;-76
2022/11/26 03:17:24;;;;;;;;;;;18.00;69.30;;;;;;4445090;32;19985;-77
2022/11/26 03:19:50;;;;;;;;;;;18.00;69.40;;;;;;4446524;32;20022;-77
2022/11/26 03:22:16;;;;;;;;;;;18.00;69.40;;;;;;4446577;32;20049;-77
2022/11/26 03:24:42;;;;;;;;;;;18.00;69.30;;;;;;4446121;32;20293;-77
2022/11/26 03:27:07;;;;;;;;;;;18.00;69.40;;;;;;4446374;32;19966;-77
2022/11/26 03:29:33;;;;;;;;;;;18.00;69.40;;;;;;4446456;32;19958;-77
2022/11/26 03:31:58;;;;;;;;;;;18.00;69.40;;;;;;4446088;32;19983;-77
2022/11/26 03:34:24;;;;;;;;;;;18.00;69.40;;;;;;4446222;32;19962;-77
2022/11/26 03:36:50;;;;;;;;;;;17.90;69.30;;;;;;4446132;32;20021;-77
2022/11/26 03:39:16;;;;;;;;;;;17.90;69.40;;;;;;4446432;32;20044;-78
2022/11/26 03:41:43;;;;;;;;;;;17.90;69.40;;;;;;4446392;32;19963;-77
2022/11/26 03:44:11;;;;;;;;;;;17.90;69.40;;;;;;4432483;32;19986;-77
2022/11/26 03:46:37;;;;;;;;;;;17.90;69.40;;;;;;4444978;32;20057;-77
2022/11/26 03:49:03;;;;;;;;;;;17.90;69.40;;;;;;4446109;32;19971;-77
2022/11/26 03:51:29;;;;;;;;;;;17.80;69.30;;;;;;4445988;32;20034;-77
2022/11/26 03:53:54;;;;;;;;;;;17.80;69.30;;;;;;4446520;32;19971;-77
2022/11/26 03:56:20;;;;;;;;;;;17.80;69.30;;;;;;4446415;32;19971;-78
2022/11/26 03:58:46;;;;;;;;;;;17.80;69.30;;;;;;4445938;32;19966;-77
2022/11/26 04:01:12;;;;;;;;;;;17.80;69.30;;;;;;4446590;32;20390;-78
2022/11/26 04:03:37;;;;;;;;;;;17.80;69.30;;;;;;4447660;32;20089;-77
2022/11/26 04:06:04;;;;;;;;;;;17.80;69.30;;;;;;4449050;32;20048;-78
2022/11/26 04:08:29;;;;;;;;;;;17.80;69.30;;;;;;4449354;32;20010;-77
2022/11/26 04:10:55;;;;;;;;;;;17.70;69.20;;;;;;4449093;32;19958;-77
2022/11/26 04:13:25;;;;;;;;;;;17.80;69.30;;;;;;4448772;32;19986;-77
2022/11/26 04:15:51;;;;;;;;;;;17.70;69.30;;;;;;4448993;32;19978;-77
2022/11/26 04:18:16;;;;;;;;;;;17.80;69.30;;;;;;4449424;32;20056;-77
2022/11/26 04:20:42;;;;;;;;;;;17.70;69.20;;;;;;4449315;32;20104;-77
2022/11/26 04:23:08;;;;;;;;;;;17.70;69.20;;;;;;4449064;32;19985;-77
2022/11/26 04:25:33;;;;;;;;;;;17.70;69.20;;;;;;4449284;32;19979;-77
2022/11/26 04:27:59;;;;;;;;;;;17.70;69.20;;;;;;4448849;32;20053;-76
2022/11/26 04:30:25;;;;;;;;;;;17.70;69.20;;;;;;4448404;32;20427;-77
2022/11/26 04:32:50;;;;;;;;;;;17.70;69.20;;;;;;4448965;32;20372;-77
2022/11/26 04:35:16;;;;;;;;;;;17.70;69.20;;;;;;4448885;32;19972;-78
2022/11/26 04:37:42;;;;;;;;;;;17.70;69.30;;;;;;4448535;32;19974;-76
2022/11/26 04:40:08;;;;;;;;;;;17.70;69.20;;;;;;4448554;32;19966;-76
2022/11/26 04:42:34;;;;;;;;;;;17.70;69.20;;;;;;4448412;32;20113;-76
2022/11/26 04:44:59;;;;;;;;;;;17.60;69.20;;;;;;4448197;32;20427;-77
2022/11/26 04:47:25;;;;;;;;;;;17.70;69.20;;;;;;4448924;32;19959;-77
2022/11/26 04:49:51;;;;;;;;;;;17.60;69.20;;;;;;4448460;32;19985;-77
2022/11/26 04:52:16;;;;;;;;;;;17.60;69.20;;;;;;4448556;32;20368;-77
2022/11/26 04:54:42;;;;;;;;;;;17.60;69.20;;;;;;4448232;32;19973;-77
2022/11/26 04:57:08;;;;;;;;;;;17.60;69.20;;;;;;4448587;32;20300;-78
2022/11/26 04:59:33;;;;;;;;;;;17.60;69.20;;;;;;4448650;32;19963;-77
2022/11/26 05:01:59;;;;;;;;;;;17.60;69.20;;;;;;4448738;32;20079;-76
2022/11/26 05:04:25;;;;;;;;;;;17.60;69.20;;;;;;4448520;32;20048;-77
2022/11/26 05:06:51;;;;;;;;;;;17.60;69.20;;;;;;4448252;32;19993;-77
2022/11/26 05:09:17;;;;;;;;;;;17.50;69.10;;;;;;4447992;32;19974;-77
2022/11/26 05:11:43;;;;;;;;;;;17.50;69.10;;;;;;4448251;32;19981;-76
2022/11/26 05:14:09;;;;;;;;;;;17.50;69.10;;;;;;4448412;32;19986;-76
2022/11/26 05:16:35;;;;;;;;;;;17.50;69.10;;;;;;4448081;32;19959;-77
2022/11/26 05:19:00;;;;;;;;;;;17.50;69.10;;;;;;4447870;32;20384;-77
2022/11/26 05:21:26;;;;;;;;;;;17.50;69.10;;;;;;4448224;32;19963;-77
2022/11/26 05:23:52;;;;;;;;;;;17.50;69.00;;;;;;4448077;32;19962;-77
2022/11/26 05:26:17;;;;;;;;;;;17.50;69.00;;;;;;4434210;32;20374;-77
2022/11/26 05:28:43;;;;;;;;;;;17.50;69.00;;;;;;4448186;32;19970;-76
2022/11/26 05:31:09;;;;;;;;;;;17.50;69.60;;;;;;4448110;32;20381;-76
2022/11/26 05:33:34;;;;;;;;;;;17.50;69.00;;;;;;4446996;32;20017;-77
2022/11/26 05:36:00;;;;;;;;;;;17.50;69.00;;;;;;4447899;32;20348;-77
2022/11/26 05:38:26;;;;;;;;;;;17.50;69.00;;;;;;4448138;32;20157;-77
2022/11/26 05:40:51;;;;;;;;;;;17.50;69.00;;;;;;4448089;32;19978;-77
2022/11/26 05:43:17;;;;;;;;;;;17.50;69.00;;;;;;4446636;32;19989;-77
2022/11/26 05:45:43;;;;;;;;;;;17.40;68.90;;;;;;4446456;32;19971;-77
2022/11/26 05:48:09;;;;;;;;;;;17.40;68.90;;;;;;4447968;32;19971;-77
2022/11/26 05:50:34;;;;;;;;;;;17.40;68.90;;;;;;4447726;32;20048;-76
2022/11/26 05:53:00;;;;;;;;;;;17.40;68.90;;;;;;4447387;32;20080;-75
2022/11/26 05:55:26;;;;;;;;;;;17.40;68.90;;;;;;4447640;32;20308;-77
2022/11/26 05:57:51;;;;;;;;;;;17.40;68.90;;;;;;4447259;32;19978;-77
2022/11/26 06:00:17;;;;;;;;;;;17.40;68.80;;;;;;4447684;32;19974;-77
2022/11/26 06:02:43;;;;;;;;;;;17.40;68.90;;;;;;4447606;32;19978;-77
2022/11/26 06:05:08;;;;;;;;;;;17.40;68.80;;;;;;4447504;32;20375;-77
2022/11/26 06:07:34;;;;;;;;;;;17.40;68.80;;;;;;4447624;32;19971;-77
2022/11/26 06:10:00;;;;;;;;;;;17.40;68.90;;;;;;4447786;32;20101;-77
2022/11/26 06:12:26;;;;;;;;;;;17.40;68.80;;;;;;4447431;32;20053;-77
2022/11/26 06:14:52;;;;;;;;;;;17.40;68.80;;;;;;4447669;32;19989;-77
2022/11/26 06:17:18;;;;;;;;;;;17.30;68.80;;;;;;4447528;32;19975;-77
2022/11/26 06:19:44;;;;;;;;;;;17.30;68.80;;;;;;4447219;32;20317;-77
2022/11/26 06:22:09;;;;;;;;;;;17.30;68.80;;;;;;4447337;32;19979;-77
2022/11/26 06:24:35;;;;;;;;;;;17.30;68.80;;;;;;4447467;32;19979;-77
2022/11/26 06:27:01;;;;;;;;;;;17.30;68.70;;;;;;4446797;32;20084;-77
2022/11/26 06:29:26;;;;;;;;;;;17.30;68.70;;;;;;4447142;32;19981;-77
2022/11/26 06:31:52;;;;;;;;;;;17.30;68.70;;;;;;4447296;32;19966;-77
2022/11/26 06:34:18;;;;;;;;;;;17.30;68.70;;;;;;4447378;32;19970;-77
2022/11/26 06:36:44;;;;;;;;;;;17.30;68.60;;;;;;4447024;32;19982;-77
2022/11/26 06:39:09;;;;;;;;;;;17.30;68.60;;;;;;4447290;32;20327;-76
2022/11/26 06:41:35;;;;;;;;;;;17.30;68.70;;;;;;4447287;32;20153;-78
2022/11/26 06:44:01;;;;;;;;;;;17.30;68.60;;;;;;4446929;32;20572;-77
2022/11/26 06:46:27;;;;;;;;;;;17.30;68.60;;;;;;4446692;32;19974;-76
2022/11/26 06:48:53;;;;;;;;;;;17.20;68.60;;;;;;4446615;32;20061;-77
2022/11/26 06:51:26;;;;;;;;;;;17.30;68.60;;;;;;4432664;32;19962;-77
2022/11/26 06:53:52;;;;;;;;;;;17.30;68.60;;;;;;4446688;32;19985;-77
2022/11/26 06:56:18;;;;;;;;;;;17.20;68.60;;;;;;4446781;32;20388;-77
2022/11/26 06:58:45;;;;;;;;;;;17.20;68.60;;;;;;4447011;32;20050;-77
2022/11/26 07:01:18;;;;;;;;;;;17.20;68.60;;;;;;4446599;32;20383;-77
2022/11/26 07:03:44;;;;;;;;;;;17.20;68.60;;;;;;4446859;32;19992;-77
2022/11/26 07:06:26;;;;;;;;;;;17.20;68.60;;;;;;4446671;32;20011;-77
2022/11/26 07:08:53;;;;;;;;;;;17.20;68.60;;;;;;4446644;32;20105;-77
2022/11/26 07:11:19;;;;;;;;;;;17.20;68.60;;;;;;4446797;32;20445;-77
2022/11/26 07:13:45;;;;;;;;;;;17.20;68.60;;;;;;4446327;32;19989;-82
2022/11/26 07:16:12;;;;;;;;;;;17.20;68.60;;;;;;4446473;32;19978;-77
2022/11/26 07:18:37;;;;;;;;;;;17.20;68.60;;;;;;4446247;32;19978;-77
2022/11/26 07:21:08;;;;;;;;;;;17.10;68.60;;;;;;4446415;32;20044;-77
2022/11/26 07:23:34;;;;;;;;;;;17.10;68.60;;;;;;4446355;32;20380;-76
2022/11/26 07:26:00;;;;;;;;;;;17.20;68.60;;;;;;4446778;32;19977;-76
2022/11/26 07:28:26;;;;;;;;;;;17.10;68.60;;;;;;4446477;32;19966;-80
2022/11/26 07:30:52;;;;;;;;;;;17.10;68.60;;;;;;4446010;32;19974;-79
2022/11/26 07:33:17;;;;;;;;;;;17.10;68.70;;;;;;4446431;32;20316;-81
2022/11/26 07:35:43;;;;;;;;;;;17.10;68.70;;;;;;4432547;32;20085;-80
2022/11/26 07:38:09;;;;;;;;;;;17.10;68.90;;;;;;4446176;32;20093;-79
2022/11/26 07:40:35;;;;;;;;;;;17.10;69.10;;;;;;4446281;32;19974;-79
2022/11/26 07:43:00;;;;;;;;;;;17.20;69.30;;;;;;4446304;32;20017;-79
2022/11/26 07:45:26;;;;;;;;;;;17.20;69.30;;;;;;4446389;32;19974;-79
2022/11/26 07:47:52;;;;;;;;;;;17.30;69.10;;;;;;4446587;32;20033;-79
2022/11/26 07:50:18;;;;;;;;;;;17.40;68.80;;;;;;4446094;32;19977;-78
2022/11/26 07:52:43;;;;;;;;;;;17.50;68.50;;;;;;4446535;32;20112;-80
2022/11/26 07:55:09;;;;;;;;;;;17.60;68.20;;;;;;4446206;32;20136;-79
2022/11/26 07:57:35;;;;;;;;;;;17.80;68.10;;;;;;4446287;32;20391;-79
2022/11/26 08:00:00;;;;;;;;;;;17.90;67.80;;;;;;4446472;32;20015;-79
2022/11/26 08:02:26;;;;;;;;;;;18.00;67.50;;;;;;4419496;32;20025;-80
2022/11/26 08:04:52;;;;;;;;;;;18.20;67.20;;;;;;4446243;32;20379;-80
2022/11/26 08:07:17;;;;;;;;;;;18.30;66.90;;;;;;4432541;32;19989;-78
2022/11/26 08:09:43;;;;;;;;;;;18.40;66.50;;;;;;4445982;32;19974;-80
2022/11/26 08:12:09;;;;;;;;;;;18.60;66.20;;;;;;4445747;32;20028;-78
2022/11/26 08:14:34;;;;;;;;;;;18.70;66.00;;;;;;4445655;32;20324;-78
2022/11/26 08:17:01;;;;;;;;;;;18.80;65.80;;;;;;4431954;32;20032;-78
2022/11/26 08:19:26;;;;;;;;;;;18.80;65.60;;;;;;4445843;32;19971;-74
2022/11/26 08:21:52;;;;;;;;;;;18.90;65.60;;;;;;4432181;32;20113;-79
2022/11/26 08:24:18;;;;;;;;;;;18.90;65.50;;;;;;4445844;32;20308;-79
2022/11/26 08:26:44;;;;;;;;;;;18.90;65.50;;;;;;4445617;32;20034;-80
2022/11/26 08:29:11;;;;;;;;;;;18.90;65.30;;;;;;4446007;32;20145;-80
2022/11/26 08:31:39;;;;;;;;;;;18.90;65.30;;;;;;4445971;32;19978;-79
2022/11/26 08:34:05;;;;;;;;;;;18.90;65.20;;;;;;4445940;32;20470;-80
2022/11/26 08:36:31;;;;;;;;;;;18.90;65.20;;;;;;4446068;32;20140;-79
2022/11/26 08:38:57;;;;;;;;;;;18.90;65.20;;;;;;4446205;32;19979;-79
2022/11/26 08:41:23;;;;;;;;;;;18.90;65.20;;;;;;4445701;32;19975;-80
2022/11/26 08:43:48;;;;;;;;;;;18.90;65.10;;;;;;4445482;32;20330;-79
2022/11/26 08:46:14;;;;;;;;;;;18.90;65.10;;;;;;4431757;32;20045;-79
2022/11/26 08:48:40;;;;;;;;;;;19.00;65.10;;;;;;4445728;32;20520;-80
2022/11/26 08:51:07;;;;;;;;;;;19.00;65.10;;;;;;4433983;32;20300;-80
2022/11/26 08:53:33;;;;;;;;;;;19.00;65.00;;;;;;4448675;32;19989;-80
2022/11/26 08:56:06;;;;;;;;;;;19.00;65.00;;;;;;4448910;32;19982;-79
2022/11/26 08:58:32;;;;;;;;;;;19.00;65.00;;;;;;4448518;32;20309;-80
2022/11/26 09:00:58;;;;;;;;;;;19.00;64.90;;;;;;4448557;32;20410;-79
2022/11/26 09:03:24;;;;;;;;;;;19.10;65.00;;;;;;4448570;32;19971;-81
2022/11/26 09:05:49;;;;;;;;;;;19.10;64.90;;;;;;4448373;32;19974;-80
2022/11/26 09:08:15;;;;;;;;;;;19.10;65.00;;;;;;4448512;32;20010;-80
2022/11/26 09:10:41;;;;;;;;;;;19.00;64.80;;;;;;4448233;32;19982;-80
2022/11/26 09:13:07;;;;;;;;;;;19.00;64.80;;;;;;4434148;32;19967;-80
2022/11/26 09:15:32;;;;;;;;;;;19.10;64.90;;;;;;4448216;32;20005;-80
2022/11/26 09:18:02;;;;;;;;;;;19.10;64.80;;;;;;4447753;32;19974;-80
2022/11/26 09:20:28;;;;;;;;;;;19.10;64.90;;;;;;4447989;32;19978;-79
2022/11/26 09:22:54;;;;;;;;;;;19.10;64.90;;;;;;4447898;32;19977;-80
2022/11/26 09:25:19;;;;;;;;;;;19.10;64.90;;;;;;4447886;32;19989;-79
2022/11/26 09:27:45;;;;;;;;;;;19.10;65.00;;;;;;4447949;32;20272;-78
2022/11/26 09:30:12;;;;;;;;;;;19.10;65.10;;;;;;4447421;32;20037;-78
2022/11/26 09:32:38;;;;;;;;;;;19.10;65.20;;;;;;4447741;32;19970;-80
2022/11/26 09:35:03;;;;;;;;;;;19.10;65.30;;;;;;4447423;32;20005;-75
2022/11/26 09:37:30;;;;;;;;;;;19.10;65.30;;;;;;4447710;32;19971;-78
2022/11/26 09:39:55;;;;;;;;;;;19.20;65.40;;;;;;4447663;32;19975;-79
2022/11/26 09:42:21;;;;;;;;;;;19.20;65.40;;;;;;4447596;32;19970;-81
2022/11/26 09:44:50;;;;;;;;;;;19.20;65.20;;;;;;4447793;32;19978;-79
2022/11/26 09:47:18;;;;;;;;;;;19.30;65.30;;;;;;4447594;32;19970;-78
2022/11/26 09:49:53;;;;;;;;;;;19.30;65.30;;;;;;4447496;32;20032;-79
2022/11/26 09:52:21;;;;;;;;;;;19.30;65.20;;;;;;4447363;32;19971;-79
2022/11/26 09:54:49;;;;;;;;;;;19.40;65.30;;;;;;4447489;32;20007;-81
2022/11/26 09:57:29;;;;;;;;;;;19.40;65.40;;;;;;4447404;32;20059;-78
2022/11/26 09:59:55;;;;;;;;;;;19.40;65.40;;;;;;4447075;32;19978;-79
2022/11/26 10:02:21;;;;;;;;;;;19.40;65.40;;;;;;4447138;32;20007;-79
2022/11/26 10:04:47;;;;;;;;;;;19.40;65.40;;;;;;4433231;32;20427;-79
2022/11/26 10:07:26;;;;;;;;;;;19.40;65.40;;;;;;4447268;32;20462;-78
2022/11/26 10:10:06;;;;;;;;;;;19.40;65.40;;;;;;4447449;32;19982;-79
2022/11/26 10:12:38;;;;;;;;;;;19.50;65.40;;;;;;4447358;32;20022;-79
2022/11/26 10:15:17;;;;;;;;;;;19.40;65.40;;;;;;4447044;32;20384;-79
2022/11/26 10:18:01;;;;;;;;;;;19.50;65.40;;;;;;4446854;32;20026;-80
2022/11/26 10:20:31;;;;;;;;;;;19.50;65.40;;;;;;4447255;32;19978;-81
2022/11/26 10:23:17;;;;;;;;;;;19.50;65.50;;;;;;4446975;32;20532;-80
2022/11/26 10:25:44;;;;;;;;;;;19.50;65.40;;;;;;4447549;32;19994;-79
2022/11/26 10:28:36;;;;;;;;;;;19.50;65.50;;;;;;4446696;32;19966;-81
2022/11/26 10:31:02;;;;;;;;;;;19.50;65.40;;;;;;4444436;32;20470;-80
2022/11/26 10:33:31;;;;;;;;;;;19.50;65.50;;;;;;4446825;32;20418;-80
2022/11/26 10:35:57;;;;;;;;;;;19.50;65.50;;;;;;4446859;32;19974;-80
2022/11/26 10:38:23;;;;;;;;;;;19.50;65.50;;;;;;4446382;32;20315;-83
2022/11/26 10:40:48;;;;;;;;;;;19.50;65.50;;;;;;4446567;32;20092;-82
2022/11/26 10:43:19;;;;;;;;;;;19.50;65.60;;;;;;4446542;32;19974;-82
2022/11/26 10:45:45;;;;;;;;;;;19.50;65.60;;;;;;4446763;32;20057;-82
2022/11/26 10:48:20;;;;;;;;;;;19.40;65.70;;;;;;4446133;32;20018;-80
2022/11/26 10:51:00;;;;;;;;;;;19.40;65.80;;;;;;4445832;32;19986;-80
2022/11/26 10:53:27;;;;;;;;;;;19.30;65.90;;;;;;4446668;32;19971;-82
2022/11/26 10:55:55;;;;;;;;;;;19.30;66.10;;;;;;4446382;32;19975;-81
2022/11/26 10:58:24;;;;;;;;;;;19.20;66.10;;;;;;4444975;32;20019;-84
2022/11/26 11:00:49;;;;;;;;;;;19.10;66.30;;;;;;4446506;32;20008;-83
2022/11/26 11:03:17;;;;;;;;;;;19.10;66.60;;;;;;4446298;32;20411;-83
2022/11/26 11:05:43;;;;;;;;;;;19.10;66.70;;;;;;4446241;32;20526;-83
2022/11/26 11:08:13;;;;;;;;;;;19.00;67.10;;;;;;4446156;32;19958;-82
2022/11/26 11:10:51;;;;;;;;;;;19.00;67.20;;;;;;4445833;32;19989;-80
2022/11/26 11:13:16;;;;;;;;;;;18.90;67.20;;;;;;4444564;32;19974;-81
2022/11/26 11:15:42;;;;;;;;;;;18.90;67.30;;;;;;4446390;32;20104;-80
2022/11/26 11:18:11;;;;;;;;;;;18.90;67.30;;;;;;4446020;32;20025;-80
2022/11/26 11:20:38;;;;;;;;;;;18.90;67.50;;;;;;4446132;32;20415;-80
2022/11/26 11:23:10;;;;;;;;;;;19.00;67.50;;;;;;4445744;32;20001;-81
2022/11/26 11:25:37;;;;;;;;;;;19.00;67.60;;;;;;4445721;32;19982;-81
2022/11/26 11:28:05;;;;;;;;;;;19.00;67.50;;;;;;4445696;32;20113;-81
2022/11/26 11:30:36;;;;;;;;;;;19.00;67.60;;;;;;4446109;32;20028;-82
2022/11/26 11:33:18;;;;;;;;;;;19.10;67.60;;;;;;4445803;32;20072;-81
2022/11/26 11:35:55;;;;;;;;;;;19.20;67.60;;;;;;4445956;32;19985;-81
2022/11/26 11:38:22;;;;;;;;;;;19.20;67.50;;;;;;4446249;32;20060;-80
2022/11/26 11:40:48;;;;;;;;;;;19.30;67.40;;;;;;4445780;32;20001;-78
2022/11/26 11:43:15;;;;;;;;;;;19.40;67.30;;;;;;4445787;32;20021;-81
2022/11/26 11:45:42;;;;;;;;;;;19.50;67.40;;;;;;4445763;32;19998;-80
2022/11/26 11:48:10;;;;;;;;;;;19.50;67.40;;;;;;4445992;32;19991;-79
2022/11/26 11:50:45;;;;;;;;;;;19.50;67.30;;;;;;4445437;32;20047;-79
2022/11/26 11:53:19;;;;;;;;;;;19.60;67.40;;;;;;4445772;32;20179;-79
2022/11/26 11:56:03;;;;;;;;;;;19.70;67.40;;;;;;4446065;32;20383;-81
2022/11/26 11:58:36;;;;;;;;;;;19.70;67.40;;;;;;4445739;32;20154;-81
2022/11/26 12:01:30;;;;;;;;;;;19.70;67.50;;;;;;4445720;32;19986;-81
2022/11/26 12:04:05;;;;;;;;;;;19.70;67.50;;;;;;4445637;32;19990;-79
2022/11/26 12:06:31;;;;;;;;;;;19.70;67.40;;;;;;4445354;32;20010;-79
2022/11/26 12:08:59;;;;;;;;;;;19.70;67.50;;;;;;4445808;32;20057;-78
2022/11/26 12:11:29;;;;;;;;;;;19.70;67.50;;;;;;4445692;32;20493;-77
2022/11/26 12:13:59;;;;;;;;;;;19.70;67.50;;;;;;4445550;32;19970;-78
2022/11/26 12:16:27;;;;;;;;;;;19.70;67.50;;;;;;4445354;32;19993;-79
2022/11/26 12:18:57;;;;;;;;;;;19.70;67.50;;;;;;4445449;32;19990;-75
2022/11/26 12:21:32;;;;;;;;;;;19.70;67.50;;;;;;4446004;32;19990;-77
2022/11/26 12:24:01;;;;;;;;;;;19.80;67.60;;;;;;4445490;32;19978;-80
2022/11/26 12:26:29;;;;;;;;;;;19.80;67.60;;;;;;4448289;32;19979;-81
2022/11/26 12:29:03;;;;;;;;;;;19.80;67.60;;;;;;4448268;32;19989;-82
2022/11/26 12:31:29;;;;;;;;;;;19.70;67.50;;;;;;4448447;32;20017;-78
2022/11/26 12:33:59;;;;;;;;;;;19.70;67.50;;;;;;4448436;32;20112;-79
2022/11/26 12:36:30;;;;;;;;;;;19.80;67.60;;;;;;4448622;32;20028;-79
2022/11/26 12:38:59;;;;;;;;;;;19.80;67.60;;;;;;4447457;32;19983;-79
2022/11/26 12:41:40;;;;;;;;;;;19.70;67.50;;;;;;4448821;32;20380;-79
2022/11/26 12:44:23;;;;;;;;;;;19.70;67.60;;;;;;4448906;32;19989;-80
2022/11/26 12:46:55;;;;;;;;;;;19.70;67.60;;;;;;4448784;32;20064;-80
2022/11/26 12:49:27;;;;;;;;;;;19.70;67.60;;;;;;4448309;32;20026;-80
2022/11/26 12:52:02;;;;;;;;;;;19.70;67.60;;;;;;4448218;32;19974;-80
2022/11/26 12:54:31;;;;;;;;;;;19.70;67.60;;;;;;4448803;32;19988;-80
2022/11/26 12:56:57;;;;;;;;;;;19.70;67.60;;;;;;4448598;32;19971;-81
2022/11/26 12:59:39;;;;;;;;;;;19.70;67.60;;;;;;4448420;32;19985;-79
2022/11/26 13:02:17;;;;;;;;;;;19.70;67.60;;;;;;4447988;32;19979;-78
2022/11/26 13:04:43;;;;;;;;;;;19.70;67.60;;;;;;4448124;32;20394;-78
2022/11/26 13:07:12;;;;;;;;;;;19.70;67.60;;;;;;4448179;32;19959;-81
2022/11/26 13:09:41;;;;;;;;;;;19.70;67.60;;;;;;4447890;32;19971;-78
2022/11/26 13:12:25;;;;;;;;;;;19.70;67.60;;;;;;4448007;32;19974;-80
2022/11/26 13:14:54;;;;;;;;;;;19.80;67.70;;;;;;4447948;32;20112;-79
2022/11/26 13:17:24;;;;;;;;;;;19.80;67.70;;;;;;4448386;32;20399;-80
2022/11/26 13:19:52;;;;;;;;;;;19.70;67.60;;;;;;4448187;32;20058;-79
2022/11/26 13:22:27;;;;;;;;;;;19.70;67.60;;;;;;4448306;32;19982;-79
2022/11/26 13:25:12;;;;;;;;;;;19.70;67.60;;;;;;4447856;32;19975;-79
2022/11/26 13:27:48;;;;;;;;;;;19.70;67.60;;;;;;4448059;32;19989;-78
2022/11/26 13:30:23;;;;;;;;;;;19.70;67.60;;;;;;4447891;32;20104;-78
2022/11/26 13:33:08;;;;;;;;;;;19.70;67.60;;;;;;4447705;32;19982;-77
2022/11/26 13:35:55;;;;;;;;;;;19.70;67.60;;;;;;4447236;32;19990;-78
2022/11/26 13:38:34;;;;;;;;;;;19.70;67.70;;;;;;4447654;32;20144;-77
2022/11/26 13:41:12;;;;;;;;;;;19.80;67.80;;;;;;4448004;32;20033;-78
2022/11/26 13:43:56;;;;;;;;;;;19.70;67.90;;;;;;4447366;32;19993;-79
2022/11/26 13:46:27;;;;;;;;;;;19.70;68.00;;;;;;4447818;32;20450;-75
2022/11/26 13:49:01;;;;;;;;;;;19.70;68.10;;;;;;4447728;32;19971;-77
2022/11/26 13:51:47;;;;;;;;;;;19.70;68.20;;;;;;4447563;32;19971;-77
2022/11/26 13:54:30;;;;;;;;;;;19.70;68.20;;;;;;4447579;32;20402;-77
2022/11/26 13:57:07;;;;;;;;;;;19.80;68.30;;;;;;4447428;32;20034;-78
2022/11/26 13:59:33;;;;;;;;;;;19.80;68.30;;;;;;4447449;32;20112;-78
2022/11/26 14:02:18;;;;;;;;;;;19.80;68.30;;;;;;4447019;32;19971;-81
2022/11/26 14:04:47;;;;;;;;;;;19.80;68.40;;;;;;4447255;32;20406;-81
2022/11/26 14:07:13;;;;;;;;;;;19.80;68.40;;;;;;4433457;32;20013;-80
2022/11/26 14:09:43;;;;;;;;;;;19.80;69.20;;;;;;4433560;32;20364;-81
2022/11/26 14:12:09;;;;;;;;;;;19.80;68.40;;;;;;4447233;32;20061;-78
2022/11/26 14:14:36;;;;;;;;;;;19.80;68.40;;;;;;4447419;32;19981;-79
2022/11/26 14:17:14;;;;;;;;;;;19.80;68.40;;;;;;4447034;32;20452;-78
2022/11/26 14:19:39;;;;;;;;;;;19.80;68.30;;;;;;4446979;32;20018;-79
2022/11/26 14:22:06;;;;;;;;;;;19.90;68.40;;;;;;4447140;32;20100;-79
2022/11/26 14:24:48;;;;;;;;;;;19.90;68.40;;;;;;4446789;32;20499;-77